createdAt,value
2019-06-15T00:01:37.217Z,59.08
2019-06-15T00:04:06.853Z,59.07
2019-06-15T00:06:36.489Z,59.25
2019-06-15T00:09:07.685Z,59.69
2019-06-15T00:11:37.297Z,59.70
2019-06-15T00:14:07.739Z,59.46
2019-06-15T00:16:37.660Z,59.92
2019-06-15T00:19:07.355Z,59.99
2019-06-15T00:21:36.965Z,60.26
2019-06-15T00:24:06.625Z,60.39
2019-06-15T00:26:36.245Z,60.44
2019-06-15T00:29:05.862Z,60.24
2019-06-15T00:31:36.327Z,60.37
2019-06-15T00:34:06.107Z,60.52
2019-06-15T00:36:35.728Z,60.62
2019-06-15T00:39:07.989Z,60.83
2019-06-15T00:41:37.789Z,61.16
2019-06-15T00:44:07.397Z,61.40
2019-06-15T00:46:37.079Z,61.64
2019-06-15T00:49:06.722Z,61.61
2019-06-15T00:51:36.315Z,61.52
2019-06-15T00:54:06.231Z,61.48
2019-06-15T00:56:35.850Z,61.27
2019-06-15T00:59:05.482Z,61.06
2019-06-15T01:01:35.574Z,60.89
2019-06-15T01:04:05.380Z,61.07
2019-06-15T01:06:35.073Z,61.55
2019-06-15T01:09:06.402Z,61.94
2019-06-15T01:11:36.027Z,62.15
2019-06-15T01:14:05.709Z,62.27
2019-06-15T01:16:35.380Z,62.50
2019-06-15T01:19:05.563Z,62.79
2019-06-15T01:21:35.179Z,62.45
2019-06-15T01:24:05.196Z,62.12
2019-06-15T01:26:34.808Z,61.96
2019-06-15T01:29:04.446Z,62.07
2019-06-15T01:31:35.172Z,62.05
2019-06-15T01:34:04.875Z,61.99
2019-06-15T01:36:34.492Z,61.74
2019-06-15T01:39:06.345Z,61.62
2019-06-15T01:41:36.125Z,61.90
2019-06-15T01:44:05.741Z,62.32
2019-06-15T01:46:35.446Z,62.76
2019-06-15T01:49:05.198Z,62.90
2019-06-15T01:51:34.820Z,63.04
2019-06-15T01:54:04.825Z,62.87
2019-06-15T01:56:34.440Z,62.84
2019-06-15T01:59:14.197Z,62.94
2019-06-15T02:01:45.111Z,62.83
2019-06-15T02:04:14.738Z,62.79
2019-06-15T02:06:45.637Z,62.72
2019-06-15T02:09:15.261Z,62.43
2019-06-15T02:11:44.888Z,62.62
2019-06-15T02:14:14.526Z,62.45
2019-06-15T02:16:44.137Z,62.22
2019-06-15T02:19:14.938Z,62.31
2019-06-15T02:21:44.587Z,62.46
2019-06-15T02:24:14.676Z,62.49
2019-06-15T02:26:44.365Z,62.48
2019-06-15T02:29:14.053Z,62.63
2019-06-15T02:31:43.695Z,62.76
2019-06-15T02:34:13.288Z,62.68
2019-06-15T02:36:43.508Z,62.81
2019-06-15T02:39:13.143Z,62.99
2019-06-15T02:41:42.776Z,63.04
2019-06-15T02:44:12.500Z,63.07
2019-06-15T02:46:42.144Z,63.06
2019-06-15T02:49:11.761Z,63.02
2019-06-15T02:51:41.884Z,63.06
2019-06-15T02:54:11.510Z,63.18
2019-06-15T02:56:41.128Z,63.44
2019-06-15T02:59:10.781Z,63.66
2019-06-15T03:01:40.398Z,63.76
2019-06-15T03:04:10.098Z,64.16
2019-06-15T03:06:39.813Z,64.42
2019-06-15T03:09:09.445Z,64.41
2019-06-15T03:11:39.810Z,63.86
2019-06-15T03:14:09.484Z,63.88
2019-06-15T03:16:39.104Z,63.76
2019-06-15T03:19:09.288Z,63.68
2019-06-15T03:21:39.774Z,63.76
2019-06-15T03:24:09.831Z,63.76
2019-06-15T03:26:39.449Z,63.61
2019-06-15T03:29:09.125Z,63.71
2019-06-15T03:31:38.751Z,63.93
2019-06-15T03:34:08.357Z,64.03
2019-06-15T03:36:38.019Z,64.12
2019-06-15T03:39:08.104Z,64.02
2019-06-15T03:41:37.726Z,64.21
2019-06-15T03:44:07.641Z,64.33
2019-06-15T03:46:37.327Z,64.19
2019-06-15T03:49:06.951Z,63.97
2019-06-15T03:51:36.626Z,63.86
2019-06-15T03:54:06.250Z,63.74
2019-06-15T03:56:35.873Z,63.75
2019-06-15T03:59:05.530Z,63.86
2019-06-15T04:01:38.564Z,63.77
2019-06-15T04:04:08.187Z,63.81
2019-06-15T04:06:37.909Z,64.08
2019-06-15T04:09:08.255Z,64.45
2019-06-15T04:11:38.050Z,64.83
2019-06-15T04:14:07.706Z,64.93
2019-06-15T04:16:37.321Z,65.03
2019-06-15T04:19:06.954Z,65.12
2019-06-15T04:21:36.625Z,65.07
2019-06-15T04:24:06.233Z,65.43
2019-06-15T04:26:36.553Z,65.57
2019-06-15T04:29:06.691Z,65.78
2019-06-15T04:31:39.733Z,65.97
2019-06-15T04:34:07.636Z,66.18
2019-06-15T04:36:37.279Z,66.64
2019-06-15T04:39:07.267Z,67.41
2019-06-15T04:41:36.900Z,67.41
2019-06-15T04:44:06.588Z,67.48
2019-06-15T04:46:36.193Z,67.91
2019-06-15T04:49:06.583Z,68.11
2019-06-15T04:51:36.235Z,68.38
2019-06-15T04:54:05.861Z,68.61
2019-06-15T04:56:47.833Z,68.84
2019-06-15T04:59:06.889Z,69.64
2019-06-15T05:01:36.520Z,70.68
2019-06-15T05:04:06.148Z,70.68
2019-06-15T05:06:37.440Z,70.96
2019-06-15T05:09:07.131Z,71.43
2019-06-15T05:11:36.771Z,71.59
2019-06-15T05:14:06.433Z,71.91
2019-06-15T05:16:36.528Z,72.64
2019-06-15T05:19:06.167Z,72.64
2019-06-15T05:21:35.892Z,73.51
2019-06-15T05:24:08.546Z,73.52
2019-06-15T05:26:36.860Z,73.64
2019-06-15T05:29:06.504Z,73.88
2019-06-15T05:31:37.303Z,74.09
2019-06-15T05:34:06.941Z,74.55
2019-06-15T05:36:36.619Z,74.55
2019-06-15T05:39:07.274Z,74.13
2019-06-15T05:41:36.896Z,74.29
2019-06-15T05:44:06.617Z,74.23
2019-06-15T05:46:36.243Z,74.15
2019-06-15T05:49:05.859Z,74.37
2019-06-15T05:51:35.509Z,74.67
2019-06-15T05:54:05.130Z,74.47
2019-06-15T05:56:34.769Z,74.40
2019-06-15T05:59:04.447Z,74.22
2019-06-15T06:01:34.077Z,74.17
2019-06-15T06:04:03.821Z,73.92
2019-06-15T06:06:33.443Z,73.43
2019-06-15T06:09:05.030Z,72.96
2019-06-15T06:11:34.721Z,72.71
2019-06-15T06:14:04.773Z,72.47
2019-06-15T06:16:34.399Z,72.37
2019-06-15T06:19:04.088Z,72.35
2019-06-15T06:21:33.734Z,72.26
2019-06-15T06:24:03.370Z,72.18
2019-06-15T06:26:33.337Z,72.47
2019-06-15T06:29:03.933Z,71.94
2019-06-15T06:31:33.551Z,71.59
2019-06-15T06:34:03.653Z,72.02
2019-06-15T06:36:33.574Z,72.06
2019-06-15T06:39:04.866Z,71.89
2019-06-15T06:41:34.482Z,71.34
2019-06-15T06:44:04.611Z,70.92
2019-06-15T06:46:34.231Z,70.68
2019-06-15T06:49:03.984Z,70.69
2019-06-15T06:51:33.658Z,70.98
2019-06-15T06:54:03.473Z,71.05
2019-06-15T06:56:33.453Z,71.11
2019-06-15T06:59:03.227Z,71.09
2019-06-15T07:01:32.857Z,71.18
2019-06-15T07:04:02.614Z,71.01
2019-06-15T07:06:32.262Z,71.20
2019-06-15T07:09:01.892Z,71.41
2019-06-15T07:11:31.510Z,71.18
2019-06-15T07:14:01.196Z,71.15
2019-06-15T07:16:30.808Z,71.34
2019-06-15T07:19:00.509Z,71.36
2019-06-15T07:21:30.943Z,71.48
2019-06-15T07:24:00.638Z,71.50
2019-06-15T07:26:30.268Z,71.83
2019-06-15T07:28:59.935Z,72.07
2019-06-15T07:31:29.552Z,72.27
2019-06-15T07:33:59.168Z,72.31
2019-06-15T07:36:28.915Z,72.53
2019-06-15T07:38:58.559Z,72.49
2019-06-15T07:41:28.194Z,72.13
2019-06-15T07:43:57.844Z,71.60
2019-06-15T07:46:27.474Z,71.24
2019-06-15T07:48:57.101Z,71.07
2019-06-15T07:51:27.294Z,70.94
2019-06-15T07:53:56.935Z,70.73
2019-06-15T07:56:26.607Z,70.80
2019-06-15T07:58:56.280Z,70.80
2019-06-15T08:01:25.905Z,71.14
2019-06-15T08:03:55.516Z,71.12
2019-06-15T08:06:25.180Z,71.23
2019-06-15T08:08:55.162Z,71.37
2019-06-15T08:11:24.787Z,71.35
2019-06-15T08:13:54.517Z,71.28
2019-06-15T08:16:24.164Z,71.50
2019-06-15T08:18:53.814Z,71.46
2019-06-15T08:21:23.509Z,71.13
2019-06-15T08:23:53.131Z,70.92
2019-06-15T08:26:22.838Z,70.88
2019-06-15T08:28:52.470Z,70.92
2019-06-15T08:31:23.102Z,70.38
2019-06-15T08:33:52.719Z,70.46
2019-06-15T08:36:22.404Z,70.76
2019-06-15T08:38:53.061Z,70.52
2019-06-15T08:41:22.688Z,70.44
2019-06-15T08:43:52.384Z,70.42
2019-06-15T08:46:22.074Z,70.69
2019-06-15T08:48:51.710Z,70.26
2019-06-15T08:51:21.370Z,69.41
2019-06-15T08:53:50.979Z,69.19
2019-06-15T08:56:20.613Z,69.12
2019-06-15T08:58:55.384Z,68.60
2019-06-15T09:01:21.663Z,68.29
2019-06-15T09:03:51.472Z,67.59
2019-06-15T09:06:21.335Z,67.44
2019-06-15T09:08:53.006Z,67.58
2019-06-15T09:11:22.634Z,67.47
2019-06-15T09:13:53.410Z,67.38
2019-06-15T09:16:25.746Z,67.46
2019-06-15T09:18:57.434Z,67.13
2019-06-15T09:21:26.486Z,67.03
2019-06-15T09:23:56.114Z,67.11
2019-06-15T09:26:25.745Z,67.36
2019-06-15T09:29:10.280Z,67.84
2019-06-15T09:31:27.898Z,68.19
2019-06-15T09:33:57.512Z,68.40
2019-06-15T09:36:28.226Z,68.69
2019-06-15T09:38:58.001Z,68.74
2019-06-15T09:41:27.989Z,69.11
2019-06-15T09:43:58.028Z,69.41
2019-06-15T09:46:27.939Z,69.65
2019-06-15T09:48:57.570Z,69.92
2019-06-15T09:51:27.224Z,70.15
2019-06-15T09:53:56.841Z,70.41
2019-06-15T09:56:26.473Z,70.18
2019-06-15T09:58:56.428Z,70.18
2019-06-15T10:01:26.050Z,70.59
2019-06-15T10:03:55.668Z,70.90
2019-06-15T10:06:25.344Z,70.79
2019-06-15T10:08:54.994Z,70.69
2019-06-15T10:11:24.632Z,70.30
2019-06-15T10:13:54.306Z,69.95
2019-06-15T10:16:23.940Z,69.91
2019-06-15T10:18:53.550Z,69.70
2019-06-15T10:21:23.252Z,69.33
2019-06-15T10:23:52.972Z,68.96
2019-06-15T10:26:24.504Z,68.64
2019-06-15T10:28:55.930Z,67.74
2019-06-15T10:31:25.869Z,67.51
2019-06-15T10:33:57.393Z,67.75
2019-06-15T10:36:27.082Z,68.06
2019-06-15T10:38:57.642Z,67.81
2019-06-15T10:41:27.278Z,68.35
2019-06-15T10:43:58.580Z,68.55
2019-06-15T10:46:29.872Z,68.29
2019-06-15T10:48:59.511Z,68.51
2019-06-15T10:51:29.210Z,68.43
2019-06-15T10:53:59.912Z,68.33
2019-06-15T10:56:29.768Z,67.80
2019-06-15T10:58:59.593Z,67.88
2019-06-15T11:01:29.347Z,68.04
2019-06-15T11:03:59.055Z,68.05
2019-06-15T11:06:30.322Z,68.02
2019-06-15T11:09:01.669Z,67.72
2019-06-15T11:11:31.886Z,67.44
2019-06-15T11:14:01.604Z,67.58
2019-06-15T11:16:31.306Z,67.44
2019-06-15T11:19:06.764Z,67.26
2019-06-15T11:21:37.942Z,67.30
2019-06-15T11:24:14.149Z,67.43
2019-06-15T11:26:44.389Z,67.18
2019-06-15T11:29:14.020Z,67.13
2019-06-15T11:31:43.822Z,67.89
2019-06-15T11:34:13.485Z,68.37
2019-06-15T11:36:43.197Z,68.20
2019-06-15T11:39:13.678Z,67.96
2019-06-15T11:41:43.319Z,68.17
2019-06-15T11:44:13.325Z,68.45
2019-06-15T11:46:42.970Z,67.84
2019-06-15T11:49:12.587Z,67.71
2019-06-15T11:51:42.219Z,67.35
2019-06-15T11:54:11.866Z,66.50
2019-06-15T11:56:41.481Z,66.13
2019-06-15T11:59:11.097Z,65.91
2019-06-15T12:01:41.163Z,65.83
2019-06-15T12:04:10.784Z,65.14
2019-06-15T12:06:40.466Z,64.98
2019-06-15T12:09:10.928Z,64.65
2019-06-15T12:11:40.629Z,64.13
2019-06-15T12:14:10.822Z,63.93
2019-06-15T12:16:40.593Z,64.22
2019-06-15T12:19:10.519Z,63.74
2019-06-15T12:21:40.163Z,63.51
2019-06-15T12:24:09.836Z,62.90
2019-06-15T12:26:39.474Z,62.65
2019-06-15T12:29:09.114Z,62.18
2019-06-15T12:31:38.790Z,61.70
2019-06-15T12:34:08.428Z,61.58
2019-06-15T12:36:38.082Z,61.27
2019-06-15T12:39:07.889Z,60.95
2019-06-15T12:41:37.536Z,60.73
2019-06-15T12:44:07.270Z,60.22
2019-06-15T12:46:36.977Z,59.72
2019-06-15T12:49:06.684Z,59.37
2019-06-15T12:51:36.327Z,58.80
2019-06-15T12:54:06.065Z,58.93
2019-06-15T12:56:35.800Z,58.88
2019-06-15T12:59:05.400Z,58.91
2019-06-15T13:01:35.126Z,58.26
2019-06-15T13:04:04.904Z,57.81
2019-06-15T13:06:34.548Z,57.48
2019-06-15T13:09:06.050Z,57.58
2019-06-15T13:11:35.690Z,56.88
2019-06-15T13:14:05.551Z,56.19
2019-06-15T13:16:39.268Z,56.92
2019-06-15T13:19:07.111Z,56.63
2019-06-15T13:21:36.809Z,55.91
2019-06-15T13:24:06.516Z,56.21
2019-06-15T13:26:36.143Z,56.25
2019-06-15T13:29:05.866Z,55.99
2019-06-15T13:31:35.508Z,55.53
2019-06-15T13:34:05.189Z,55.18
2019-06-15T13:36:34.804Z,55.38
2019-06-15T13:39:06.865Z,55.38
2019-06-15T13:41:37.169Z,55.09
2019-06-15T13:44:09.920Z,54.78
2019-06-15T13:46:39.589Z,54.96
2019-06-15T13:49:09.366Z,54.88
2019-06-15T13:51:39.015Z,54.05
2019-06-15T13:54:08.718Z,54.36
2019-06-15T13:56:38.355Z,54.34
2019-06-15T13:59:08.122Z,54.49
2019-06-15T14:01:37.859Z,54.05
2019-06-15T14:04:07.564Z,54.06
2019-06-15T14:06:37.982Z,53.79
2019-06-15T14:09:10.526Z,53.49
2019-06-15T14:11:41.973Z,53.74
2019-06-15T14:14:11.716Z,53.54
2019-06-15T14:16:42.302Z,53.56
2019-06-15T14:19:12.140Z,53.80
2019-06-15T14:21:41.775Z,53.76
2019-06-15T14:24:11.451Z,54.22
2019-06-15T14:26:43.003Z,54.29
2019-06-15T14:29:12.810Z,54.16
2019-06-15T14:31:50.049Z,54.17
2019-06-15T14:34:13.813Z,54.06
2019-06-15T14:36:43.496Z,53.90
2019-06-15T14:39:13.460Z,53.96
2019-06-15T14:41:46.810Z,54.04
2019-06-15T14:44:15.370Z,53.79
2019-06-15T14:46:45.045Z,53.85
2019-06-15T14:49:14.689Z,53.94
2019-06-15T14:51:44.619Z,53.88
2019-06-15T14:54:16.198Z,53.97
2019-06-15T14:56:46.056Z,53.81
2019-06-15T14:59:15.712Z,53.84
2019-06-15T15:01:47.033Z,53.50
2019-06-15T15:04:17.041Z,53.51
2019-06-15T15:06:47.249Z,53.83
2019-06-15T15:09:17.135Z,53.62
2019-06-15T15:11:46.802Z,53.34
2019-06-15T15:14:17.429Z,53.15
2019-06-15T15:16:47.458Z,53.98
2019-06-15T15:19:17.180Z,53.21
2019-06-15T15:21:46.816Z,53.06
2019-06-15T15:24:16.829Z,53.14
2019-06-15T15:26:47.149Z,53.11
2019-06-15T15:29:17.151Z,53.17
2019-06-15T15:31:46.845Z,52.75
2019-06-15T15:34:17.360Z,52.99
2019-06-15T15:36:47.251Z,52.99
2019-06-15T15:39:17.113Z,53.35
2019-06-15T15:41:47.161Z,53.42
2019-06-15T15:44:16.865Z,53.71
2019-06-15T15:46:46.523Z,53.79
2019-06-15T15:49:16.497Z,53.63
2019-06-15T15:51:47.308Z,53.78
2019-06-15T15:54:17.142Z,53.88
2019-06-15T15:56:46.917Z,53.91
2019-06-15T15:59:16.468Z,53.81
2019-06-15T16:01:46.375Z,54.11
2019-06-15T16:04:17.051Z,54.04
2019-06-15T16:06:46.955Z,54.08
2019-06-15T16:09:17.065Z,54.25
2019-06-15T16:11:46.779Z,54.26
2019-06-15T16:14:16.690Z,54.43
2019-06-15T16:16:46.949Z,54.61
2019-06-15T16:19:17.227Z,54.54
2019-06-15T16:21:47.258Z,54.88
2019-06-15T16:24:16.998Z,55.10
2019-06-15T16:26:46.909Z,55.41
2019-06-15T16:29:16.881Z,55.44
2019-06-15T16:31:49.532Z,55.28
2019-06-15T16:34:22.298Z,55.61
2019-06-15T16:36:53.447Z,56.04
2019-06-15T16:39:23.184Z,56.22
2019-06-15T16:42:01.133Z,56.35
2019-06-15T16:44:36.709Z,56.10
2019-06-15T16:47:06.879Z,56.65
2019-06-15T16:49:36.490Z,56.76
2019-06-15T16:52:06.312Z,57.00
2019-06-15T16:54:37.622Z,57.22
2019-06-15T16:57:07.263Z,57.48
2019-06-15T16:59:37.003Z,57.57
2019-06-15T17:02:06.621Z,57.65
2019-06-15T17:04:37.884Z,57.90
2019-06-15T17:07:07.578Z,58.04
2019-06-15T17:09:37.207Z,58.46
2019-06-15T17:12:06.855Z,58.65
2019-06-15T17:14:36.792Z,58.90
2019-06-15T17:17:06.589Z,59.12
2019-06-15T17:19:36.374Z,59.33
2019-06-15T17:22:18.619Z,59.55
2019-06-15T17:24:41.791Z,60.02
2019-06-15T17:27:11.529Z,60.22
2019-06-15T17:29:41.331Z,60.15
2019-06-15T17:32:10.958Z,60.21
2019-06-15T17:34:40.647Z,60.51
2019-06-15T17:37:10.393Z,60.65
2019-06-15T17:39:40.011Z,60.82
2019-06-15T17:42:09.642Z,61.06
2019-06-15T17:44:39.294Z,61.04
2019-06-15T17:47:08.922Z,61.04
2019-06-15T17:49:39.514Z,61.32
2019-06-15T17:52:09.206Z,61.44
2019-06-15T17:54:38.837Z,61.43
2019-06-15T17:57:08.472Z,61.50
2019-06-15T17:59:38.158Z,61.62
2019-06-15T18:02:07.799Z,61.63
2019-06-15T18:04:37.562Z,61.62
2019-06-15T18:07:07.250Z,61.39
2019-06-15T18:09:37.281Z,61.19
2019-06-15T18:12:06.985Z,60.94
2019-06-15T18:14:36.885Z,60.87
2019-06-15T18:17:07.217Z,60.72
2019-06-15T18:19:37.106Z,60.61
2019-06-15T18:22:07.269Z,60.62
2019-06-15T18:24:37.322Z,60.56
2019-06-15T18:27:09.650Z,60.55
2019-06-15T18:29:38.455Z,60.55
2019-06-15T18:32:08.086Z,60.53
2019-06-15T18:34:37.707Z,60.63
2019-06-15T18:37:07.786Z,60.40
2019-06-15T18:39:37.510Z,60.40
2019-06-15T18:42:07.735Z,60.44
2019-06-15T18:44:37.597Z,60.45
2019-06-15T18:47:07.293Z,60.51
2019-06-15T18:49:36.932Z,60.41
2019-06-15T18:52:06.579Z,60.38
2019-06-15T18:54:36.468Z,60.49
2019-06-15T18:57:07.409Z,60.55
2019-06-15T18:59:37.249Z,60.55
2019-06-15T19:02:06.866Z,60.39
2019-06-15T19:04:36.490Z,60.27
2019-06-15T19:07:07.231Z,60.11
2019-06-15T19:09:38.474Z,59.99
2019-06-15T19:12:09.727Z,60.16
2019-06-15T19:14:40.401Z,60.20
2019-06-15T19:17:11.542Z,60.23
2019-06-15T19:19:41.195Z,60.25
2019-06-15T19:22:10.819Z,60.23
2019-06-15T19:24:40.438Z,60.16
2019-06-15T19:27:10.068Z,60.33
2019-06-15T19:29:39.717Z,60.50
2019-06-15T19:32:09.377Z,61.16
2019-06-15T19:34:47.195Z,61.23
2019-06-15T19:37:10.770Z,61.33
2019-06-15T19:39:40.892Z,61.14
2019-06-15T19:42:10.515Z,61.08
2019-06-15T19:44:40.167Z,60.96
2019-06-15T19:47:09.796Z,61.13
2019-06-15T19:49:39.406Z,61.13
2019-06-15T19:52:09.132Z,61.06
2019-06-15T19:54:38.758Z,61.19
2019-06-15T19:57:08.386Z,61.26
2019-06-15T19:59:38.071Z,61.43
2019-06-15T20:02:10.764Z,61.57
2019-06-15T20:04:39.022Z,61.73
2019-06-15T20:07:08.693Z,62.06
2019-06-15T20:09:38.311Z,62.30
2019-06-15T20:12:18.184Z,62.56
2019-06-15T20:14:40.041Z,62.65
2019-06-15T20:17:09.663Z,62.79
2019-06-15T20:19:39.286Z,62.98
2019-06-15T20:22:08.957Z,62.97
2019-06-15T20:24:38.586Z,62.87
2019-06-15T20:27:10.455Z,62.90
2019-06-15T20:29:40.341Z,62.98
2019-06-15T20:32:10.140Z,62.80
2019-06-15T20:34:39.751Z,63.01
2019-06-15T20:37:09.414Z,63.26
2019-06-15T20:39:40.133Z,62.87
2019-06-15T20:42:09.756Z,65.13
2019-06-15T20:44:39.572Z,66.91
2019-06-15T20:47:09.209Z,67.88
2019-06-15T20:49:38.914Z,76.73
2019-06-15T20:52:08.620Z,89.49
2019-06-15T20:54:38.239Z,95.18
2019-06-15T20:57:07.868Z,98.81
2019-06-15T20:59:37.545Z,98.47
2019-06-15T21:02:07.247Z,100.00
2019-06-15T21:04:37.245Z,100.00
2019-06-15T21:07:06.933Z,100.00
2019-06-15T21:09:36.592Z,100.00
2019-06-15T21:12:06.762Z,100.00
2019-06-15T21:14:36.782Z,100.00
2019-06-15T21:17:06.925Z,100.00
2019-06-15T21:19:36.684Z,100.00
2019-06-15T21:22:06.540Z,100.00
2019-06-15T21:24:37.277Z,100.00
2019-06-15T21:27:07.173Z,100.00
2019-06-15T21:29:37.175Z,100.00
2019-06-15T21:32:06.766Z,100.00
2019-06-15T21:34:36.422Z,100.00
2019-06-15T21:37:06.650Z,100.00
2019-06-15T21:39:36.627Z,100.00
2019-06-15T21:42:06.457Z,100.00
2019-06-15T21:44:36.271Z,100.00
2019-06-15T21:47:06.936Z,100.00
2019-06-15T21:49:36.757Z,100.00
2019-06-15T21:52:07.129Z,100.00
2019-06-15T21:54:37.062Z,100.00
2019-06-15T21:57:07.157Z,100.00
2019-06-15T21:59:37.191Z,100.00
2019-06-15T22:02:07.247Z,100.00
2019-06-15T22:04:37.102Z,100.00
2019-06-15T22:07:06.790Z,100.00
2019-06-15T22:09:36.601Z,100.00
2019-06-15T22:12:06.983Z,100.00
2019-06-15T22:14:36.808Z,100.00
2019-06-15T22:17:06.868Z,100.00
2019-06-15T22:19:37.006Z,100.00
2019-06-15T22:22:07.769Z,100.00
2019-06-15T22:24:37.520Z,100.00
2019-06-15T22:27:07.151Z,100.00
2019-06-15T22:29:36.832Z,100.00
2019-06-15T22:32:07.020Z,100.00
2019-06-15T22:34:36.759Z,100.00
2019-06-15T22:37:08.146Z,100.00
2019-06-15T22:39:37.796Z,100.00
2019-06-15T22:42:07.418Z,100.00
2019-06-15T22:44:37.372Z,100.00
2019-06-15T22:47:07.067Z,100.00
2019-06-15T22:49:36.791Z,100.00
2019-06-15T22:52:06.742Z,100.00
2019-06-15T22:54:37.699Z,100.00
2019-06-15T22:57:07.504Z,100.00
2019-06-15T22:59:37.226Z,100.00
2019-06-15T23:02:07.118Z,100.00
2019-06-15T23:04:37.226Z,100.00
2019-06-15T23:07:08.713Z,100.00
2019-06-15T23:09:38.376Z,100.00
2019-06-15T23:12:08.249Z,100.00
2019-06-15T23:14:38.008Z,100.00
2019-06-15T23:17:07.821Z,100.00
2019-06-15T23:19:37.483Z,100.00
2019-06-15T23:22:07.790Z,100.00
2019-06-15T23:24:37.508Z,100.00
2019-06-15T23:27:46.995Z,100.00
2019-06-15T23:30:51.241Z,100.00
2019-06-15T23:33:21.323Z,100.00
2019-06-15T23:36:28.661Z,100.00
2019-06-15T23:38:58.909Z,100.00
2019-06-15T23:41:28.616Z,100.00
2019-06-15T23:43:58.315Z,100.00
2019-06-15T23:46:27.988Z,100.00
2019-06-15T23:49:03.579Z,100.00
2019-06-15T23:52:12.327Z,100.00
2019-06-15T23:54:42.036Z,100.00
2019-06-15T23:57:11.668Z,100.00
2019-06-15T23:59:41.350Z,100.00
